sensor_id;sensor_type;location;lat;lon;timestamp;pressure;altitude;pressure_sealevel;temperature;humidity
24306;BME280;12423;48.768;8.850;2023-05-29T00:00:04;97004.66;;;13.40;nan
24306;BME280;12423;48.768;8.850;2023-05-29T00:02:13;97005.25;;;13.34;nan
24306;BME280;12423;48.768;8.850;2023-05-29T00:04:14;97004.00;;;13.28;nan
24306;BME280;12423;48.768;8.850;2023-05-29T00:06:15;97001.91;;;13.22;nan
24306;BME280;12423;48.768;8.850;2023-05-29T00:08:16;97003.03;;;13.20;nan
24306;BME280;12423;48.768;8.850;2023-05-29T00:10:17;97004.34;;;13.16;nan
24306;BME280;12423;48.768;8.850;2023-05-29T00:12:18;97003.25;;;13.08;nan
24306;BME280;12423;48.768;8.850;2023-05-29T00:14:20;97005.94;;;13.08;nan
24306;BME280;12423;48.768;8.850;2023-05-29T00:16:21;97012.00;;;13.11;nan
24306;BME280;12423;48.768;8.850;2023-05-29T00:18:22;97002.16;;;13.01;nan
24306;BME280;12423;48.768;8.850;2023-05-29T00:20:23;97003.06;;;12.92;nan
24306;BME280;12423;48.768;8.850;2023-05-29T00:22:24;97007.44;;;12.83;nan
24306;BME280;12423;48.768;8.850;2023-05-29T00:24:26;97004.00;;;12.63;nan
24306;BME280;12423;48.768;8.850;2023-05-29T00:26:27;96995.28;;;12.51;nan
24306;BME280;12423;48.768;8.850;2023-05-29T00:28:29;96993.03;;;12.47;nan
24306;BME280;12423;48.768;8.850;2023-05-29T00:30:30;96996.38;;;12.59;nan
24306;BME280;12423;48.768;8.850;2023-05-29T00:32:31;97000.28;;;12.74;nan
24306;BME280;12423;48.768;8.850;2023-05-29T00:34:32;96993.53;;;12.70;nan
24306;BME280;12423;48.768;8.850;2023-05-29T00:36:34;96998.66;;;12.53;nan
24306;BME280;12423;48.768;8.850;2023-05-29T00:38:35;96997.16;;;12.41;nan
24306;BME280;12423;48.768;8.850;2023-05-29T00:40:36;96993.84;;;12.57;nan
24306;BME280;12423;48.768;8.850;2023-05-29T00:42:37;96990.47;;;12.55;nan
24306;BME280;12423;48.768;8.850;2023-05-29T00:44:38;96993.56;;;12.60;nan
24306;BME280;12423;48.768;8.850;2023-05-29T00:46:39;96989.25;;;12.40;nan
24306;BME280;12423;48.768;8.850;2023-05-29T00:48:41;96989.09;;;12.51;nan
24306;BME280;12423;48.768;8.850;2023-05-29T00:50:43;96982.72;;;12.52;nan
24306;BME280;12423;48.768;8.850;2023-05-29T00:52:45;96988.16;;;12.32;nan
24306;BME280;12423;48.768;8.850;2023-05-29T00:54:46;96979.22;;;12.32;nan
24306;BME280;12423;48.768;8.850;2023-05-29T00:56:47;96992.50;;;12.33;nan
24306;BME280;12423;48.768;8.850;2023-05-29T00:58:49;96987.78;;;12.08;nan
24306;BME280;12423;48.768;8.850;2023-05-29T01:00:52;96989.41;;;12.28;nan
24306;BME280;12423;48.768;8.850;2023-05-29T01:02:53;96997.03;;;12.33;nan
24306;BME280;12423;48.768;8.850;2023-05-29T01:04:54;96989.69;;;12.35;nan
24306;BME280;12423;48.768;8.850;2023-05-29T01:06:56;96986.06;;;12.07;nan
24306;BME280;12423;48.768;8.850;2023-05-29T01:08:58;96985.50;;;12.13;nan
24306;BME280;12423;48.768;8.850;2023-05-29T01:13:30;96980.28;;;12.21;nan
24306;BME280;12423;48.768;8.850;2023-05-29T01:15:43;96977.31;;;12.24;nan
24306;BME280;12423;48.768;8.850;2023-05-29T01:18:07;96968.28;;;12.25;nan
24306;BME280;12423;48.768;8.850;2023-05-29T01:23:21;96982.53;;;12.16;nan
24306;BME280;12423;48.768;8.850;2023-05-29T01:25:02;96974.78;;;12.13;nan
24306;BME280;12423;48.768;8.850;2023-05-29T01:27:10;96979.44;;;12.11;nan
24306;BME280;12423;48.768;8.850;2023-05-29T01:29:19;96975.09;;;12.10;nan
24306;BME280;12423;48.768;8.850;2023-05-29T01:31:26;96971.09;;;12.14;nan
24306;BME280;12423;48.768;8.850;2023-05-29T01:33:27;96968.59;;;12.03;nan
24306;BME280;12423;48.768;8.850;2023-05-29T01:35:29;96973.81;;;12.04;nan
24306;BME280;12423;48.768;8.850;2023-05-29T01:37:30;96972.13;;;11.93;nan
24306;BME280;12423;48.768;8.850;2023-05-29T01:39:31;96966.34;;;11.88;nan
24306;BME280;12423;48.768;8.850;2023-05-29T01:41:34;96978.16;;;11.86;nan
24306;BME280;12423;48.768;8.850;2023-05-29T01:43:36;96974.13;;;11.91;nan
24306;BME280;12423;48.768;8.850;2023-05-29T01:45:37;96969.69;;;11.51;nan
24306;BME280;12423;48.768;8.850;2023-05-29T01:47:38;96975.63;;;11.65;nan
24306;BME280;12423;48.768;8.850;2023-05-29T01:49:39;96974.06;;;11.33;nan
24306;BME280;12423;48.768;8.850;2023-05-29T01:51:43;96974.78;;;11.54;nan
24306;BME280;12423;48.768;8.850;2023-05-29T01:53:44;96979.28;;;11.54;nan
24306;BME280;12423;48.768;8.850;2023-05-29T01:55:46;96979.44;;;11.52;nan
24306;BME280;12423;48.768;8.850;2023-05-29T01:57:48;96981.97;;;11.54;nan
24306;BME280;12423;48.768;8.850;2023-05-29T01:59:49;96989.44;;;11.50;nan
24306;BME280;12423;48.768;8.850;2023-05-29T02:01:51;96989.66;;;11.28;nan
24306;BME280;12423;48.768;8.850;2023-05-29T02:03:52;96979.56;;;11.41;nan
24306;BME280;12423;48.768;8.850;2023-05-29T02:05:53;96988.22;;;11.04;nan
24306;BME280;12423;48.768;8.850;2023-05-29T02:07:54;96981.59;;;11.08;nan
24306;BME280;12423;48.768;8.850;2023-05-29T02:09:55;96981.31;;;11.11;nan
24306;BME280;12423;48.768;8.850;2023-05-29T02:11:56;96964.97;;;10.95;nan
24306;BME280;12423;48.768;8.850;2023-05-29T02:13:57;96964.59;;;11.19;nan
24306;BME280;12423;48.768;8.850;2023-05-29T02:15:58;96967.72;;;11.34;nan
24306;BME280;12423;48.768;8.850;2023-05-29T02:18:00;96978.31;;;11.45;nan
24306;BME280;12423;48.768;8.850;2023-05-29T02:20:04;96973.09;;;11.53;nan
24306;BME280;12423;48.768;8.850;2023-05-29T02:22:05;96979.00;;;11.47;nan
24306;BME280;12423;48.768;8.850;2023-05-29T02:24:06;96967.84;;;11.22;nan
24306;BME280;12423;48.768;8.850;2023-05-29T02:26:08;96973.88;;;11.15;nan
24306;BME280;12423;48.768;8.850;2023-05-29T02:28:09;96972.75;;;11.17;nan
24306;BME280;12423;48.768;8.850;2023-05-29T02:30:10;96979.94;;;11.07;nan
24306;BME280;12423;48.768;8.850;2023-05-29T02:32:11;96978.91;;;10.98;nan
24306;BME280;12423;48.768;8.850;2023-05-29T02:34:13;96979.75;;;10.99;nan
24306;BME280;12423;48.768;8.850;2023-05-29T02:36:14;96989.75;;;11.06;nan
24306;BME280;12423;48.768;8.850;2023-05-29T02:38:17;96983.47;;;11.17;nan
24306;BME280;12423;48.768;8.850;2023-05-29T02:40:18;96983.63;;;11.25;nan
24306;BME280;12423;48.768;8.850;2023-05-29T02:42:20;96982.19;;;11.21;nan
24306;BME280;12423;48.768;8.850;2023-05-29T02:44:21;96974.72;;;11.25;nan
24306;BME280;12423;48.768;8.850;2023-05-29T02:46:22;96974.16;;;11.21;nan
24306;BME280;12423;48.768;8.850;2023-05-29T02:48:24;96964.91;;;11.25;nan
24306;BME280;12423;48.768;8.850;2023-05-29T02:50:27;96967.84;;;11.22;nan
24306;BME280;12423;48.768;8.850;2023-05-29T02:52:28;96962.63;;;11.21;nan
24306;BME280;12423;48.768;8.850;2023-05-29T02:54:31;96970.94;;;11.18;nan
24306;BME280;12423;48.768;8.850;2023-05-29T02:56:32;96962.19;;;11.06;nan
24306;BME280;12423;48.768;8.850;2023-05-29T02:58:33;96965.00;;;11.04;nan
24306;BME280;12423;48.768;8.850;2023-05-29T03:00:36;96961.22;;;11.07;nan
24306;BME280;12423;48.768;8.850;2023-05-29T03:02:37;96965.81;;;11.05;nan
24306;BME280;12423;48.768;8.850;2023-05-29T03:04:38;96963.72;;;10.99;nan
24306;BME280;12423;48.768;8.850;2023-05-29T03:06:39;96967.09;;;11.01;nan
24306;BME280;12423;48.768;8.850;2023-05-29T03:08:41;96969.03;;;10.89;nan
24306;BME280;12423;48.768;8.850;2023-05-29T03:10:45;96969.59;;;10.93;nan
24306;BME280;12423;48.768;8.850;2023-05-29T03:12:49;96980.22;;;10.73;nan
24306;BME280;12423;48.768;8.850;2023-05-29T03:14:51;96980.22;;;10.73;nan
24306;BME280;12423;48.768;8.850;2023-05-29T03:16:52;96976.03;;;10.80;nan
24306;BME280;12423;48.768;8.850;2023-05-29T03:18:53;96977.72;;;10.81;nan
24306;BME280;12423;48.768;8.850;2023-05-29T03:20:55;96977.59;;;10.83;nan
24306;BME280;12423;48.768;8.850;2023-05-29T03:22:56;96971.28;;;10.84;nan
24306;BME280;12423;48.768;8.850;2023-05-29T03:24:57;96970.84;;;10.88;nan
24306;BME280;12423;48.768;8.850;2023-05-29T03:26:58;96965.59;;;10.77;nan
24306;BME280;12423;48.768;8.850;2023-05-29T03:28:59;96972.66;;;10.78;nan
24306;BME280;12423;48.768;8.850;2023-05-29T03:31:00;96976.28;;;10.67;nan
24306;BME280;12423;48.768;8.850;2023-05-29T03:33:02;96972.88;;;10.65;nan
24306;BME280;12423;48.768;8.850;2023-05-29T03:35:21;96971.50;;;10.71;nan
24306;BME280;12423;48.768;8.850;2023-05-29T03:37:22;96973.44;;;10.59;nan
24306;BME280;12423;48.768;8.850;2023-05-29T03:39:23;96975.94;;;10.61;nan
24306;BME280;12423;48.768;8.850;2023-05-29T03:41:24;96970.75;;;10.59;nan
24306;BME280;12423;48.768;8.850;2023-05-29T03:43:28;96971.59;;;10.60;nan
24306;BME280;12423;48.768;8.850;2023-05-29T03:45:29;96961.16;;;10.57;nan
24306;BME280;12423;48.768;8.850;2023-05-29T03:47:30;96969.75;;;10.60;nan
24306;BME280;12423;48.768;8.850;2023-05-29T03:49:31;96966.69;;;10.65;nan
24306;BME280;12423;48.768;8.850;2023-05-29T03:51:32;96968.09;;;10.69;nan
24306;BME280;12423;48.768;8.850;2023-05-29T03:53:33;96976.13;;;10.69;nan
24306;BME280;12423;48.768;8.850;2023-05-29T03:55:34;96966.94;;;10.62;nan
24306;BME280;12423;48.768;8.850;2023-05-29T03:57:35;96979.59;;;10.60;nan
24306;BME280;12423;48.768;8.850;2023-05-29T03:59:37;96981.75;;;10.66;nan
24306;BME280;12423;48.768;8.850;2023-05-29T04:01:39;96977.94;;;10.68;nan
24306;BME280;12423;48.768;8.850;2023-05-29T04:03:40;96982.19;;;10.71;nan
24306;BME280;12423;48.768;8.850;2023-05-29T04:05:41;96983.84;;;10.72;nan
24306;BME280;12423;48.768;8.850;2023-05-29T04:07:44;96979.66;;;10.69;nan
24306;BME280;12423;48.768;8.850;2023-05-29T04:09:45;96984.47;;;10.76;nan
24306;BME280;12423;48.768;8.850;2023-05-29T04:11:46;96985.31;;;10.76;nan
24306;BME280;12423;48.768;8.850;2023-05-29T04:13:47;96984.84;;;10.71;nan
24306;BME280;12423;48.768;8.850;2023-05-29T04:15:48;96984.47;;;10.76;nan
24306;BME280;12423;48.768;8.850;2023-05-29T04:17:51;96985.16;;;10.78;nan
24306;BME280;12423;48.768;8.850;2023-05-29T04:19:52;96987.84;;;10.78;nan
24306;BME280;12423;48.768;8.850;2023-05-29T04:21:53;96999.09;;;10.81;nan
24306;BME280;12423;48.768;8.850;2023-05-29T04:23:54;97004.44;;;10.81;nan
24306;BME280;12423;48.768;8.850;2023-05-29T04:25:55;97011.19;;;10.85;nan
24306;BME280;12423;48.768;8.850;2023-05-29T04:28:00;97015.91;;;10.72;nan
24306;BME280;12423;48.768;8.850;2023-05-29T04:30:05;97014.50;;;10.68;nan
24306;BME280;12423;48.768;8.850;2023-05-29T04:32:09;97019.16;;;10.66;nan
24306;BME280;12423;48.768;8.850;2023-05-29T04:34:13;97019.28;;;10.64;nan
24306;BME280;12423;48.768;8.850;2023-05-29T04:36:18;97028.56;;;10.70;nan
24306;BME280;12423;48.768;8.850;2023-05-29T04:38:21;97030.22;;;10.61;nan
24306;BME280;12423;48.768;8.850;2023-05-29T04:40:26;97030.88;;;10.54;nan
24306;BME280;12423;48.768;8.850;2023-05-29T04:42:28;97032.41;;;10.77;nan
24306;BME280;12423;48.768;8.850;2023-05-29T04:44:34;97036.25;;;10.84;nan
24306;BME280;12423;48.768;8.850;2023-05-29T04:46:36;97039.97;;;11.03;nan
24306;BME280;12423;48.768;8.850;2023-05-29T04:48:38;97038.56;;;11.09;nan
24306;BME280;12423;48.768;8.850;2023-05-29T04:50:43;97041.41;;;11.17;nan
24306;BME280;12423;48.768;8.850;2023-05-29T04:52:45;97027.63;;;11.21;nan
24306;BME280;12423;48.768;8.850;2023-05-29T04:54:46;97038.97;;;11.44;nan
24306;BME280;12423;48.768;8.850;2023-05-29T04:56:49;97034.31;;;11.56;nan
24306;BME280;12423;48.768;8.850;2023-05-29T04:58:53;97036.03;;;11.57;nan
24306;BME280;12423;48.768;8.850;2023-05-29T05:00:55;97036.47;;;11.62;nan
24306;BME280;12423;48.768;8.850;2023-05-29T05:02:59;97047.44;;;11.69;nan
24306;BME280;12423;48.768;8.850;2023-05-29T05:05:00;97046.91;;;11.75;nan
24306;BME280;12423;48.768;8.850;2023-05-29T05:07:01;97046.34;;;11.72;nan
24306;BME280;12423;48.768;8.850;2023-05-29T05:09:02;97043.53;;;11.73;nan
24306;BME280;12423;48.768;8.850;2023-05-29T05:11:05;97045.78;;;11.78;nan
24306;BME280;12423;48.768;8.850;2023-05-29T05:13:07;97048.00;;;11.73;nan
24306;BME280;12423;48.768;8.850;2023-05-29T05:15:09;97045.78;;;11.78;nan
24306;BME280;12423;48.768;8.850;2023-05-29T05:17:10;97045.47;;;11.81;nan
24306;BME280;12423;48.768;8.850;2023-05-29T05:19:11;97050.97;;;11.89;nan
24306;BME280;12423;48.768;8.850;2023-05-29T05:21:14;97050.75;;;11.92;nan
24306;BME280;12423;48.768;8.850;2023-05-29T05:23:15;97048.06;;;11.92;nan
24306;BME280;12423;48.768;8.850;2023-05-29T05:25:16;97051.88;;;12.00;nan
24306;BME280;12423;48.768;8.850;2023-05-29T05:27:20;97052.16;;;12.06;nan
24306;BME280;12423;48.768;8.850;2023-05-29T05:29:21;97050.03;;;12.10;nan
24306;BME280;12423;48.768;8.850;2023-05-29T05:31:23;97049.78;;;12.13;nan
24306;BME280;12423;48.768;8.850;2023-05-29T05:33:24;97046.81;;;12.16;nan
24306;BME280;12423;48.768;8.850;2023-05-29T05:35:25;97043.81;;;12.19;nan
24306;BME280;12423;48.768;8.850;2023-05-29T05:37:27;97050.47;;;12.25;nan
24306;BME280;12423;48.768;8.850;2023-05-29T05:39:29;97048.06;;;12.31;nan
24306;BME280;12423;48.768;8.850;2023-05-29T05:41:30;97043.25;;;12.35;nan
24306;BME280;12423;48.768;8.850;2023-05-29T05:43:34;97045.50;;;12.40;nan
24306;BME280;12423;48.768;8.850;2023-05-29T05:45:44;97050.31;;;12.46;nan
24306;BME280;12423;48.768;8.850;2023-05-29T05:47:47;97050.13;;;12.57;nan
24306;BME280;12423;48.768;8.850;2023-05-29T05:49:48;97048.44;;;12.56;nan
24306;BME280;12423;48.768;8.850;2023-05-29T05:51:50;97054.31;;;12.69;nan
24306;BME280;12423;48.768;8.850;2023-05-29T05:53:52;97044.31;;;12.71;nan
24306;BME280;12423;48.768;8.850;2023-05-29T05:55:54;97058.22;;;12.85;nan
24306;BME280;12423;48.768;8.850;2023-05-29T05:57:55;97066.09;;;12.96;nan
24306;BME280;12423;48.768;8.850;2023-05-29T06:00:04;97068.06;;;13.04;nan
24306;BME280;12423;48.768;8.850;2023-05-29T06:02:17;97076.75;;;13.16;nan
24306;BME280;12423;48.768;8.850;2023-05-29T06:04:18;97071.50;;;13.24;nan
24306;BME280;12423;48.768;8.850;2023-05-29T06:06:19;97070.91;;;13.30;nan
24306;BME280;12423;48.768;8.850;2023-05-29T06:08:22;97080.03;;;13.47;nan
24306;BME280;12423;48.768;8.850;2023-05-29T06:10:23;97087.50;;;13.53;nan
24306;BME280;12423;48.768;8.850;2023-05-29T06:12:24;97076.13;;;13.59;nan
24306;BME280;12423;48.768;8.850;2023-05-29T06:14:35;97088.81;;;13.67;nan
24306;BME280;12423;48.768;8.850;2023-05-29T06:16:36;97085.22;;;13.76;nan
24306;BME280;12423;48.768;8.850;2023-05-29T06:18:38;97080.25;;;13.81;nan
24306;BME280;12423;48.768;8.850;2023-05-29T06:20:39;97075.28;;;13.87;nan
24306;BME280;12423;48.768;8.850;2023-05-29T06:22:40;97084.25;;;13.95;nan
24306;BME280;12423;48.768;8.850;2023-05-29T06:24:41;97078.13;;;14.03;nan
24306;BME280;12423;48.768;8.850;2023-05-29T06:26:43;97087.63;;;14.15;nan
24306;BME280;12423;48.768;8.850;2023-05-29T06:28:46;97085.72;;;14.26;nan
24306;BME280;12423;48.768;8.850;2023-05-29T06:30:48;97090.38;;;14.42;nan
24306;BME280;12423;48.768;8.850;2023-05-29T06:32:51;97096.75;;;14.59;nan
24306;BME280;12423;48.768;8.850;2023-05-29T06:34:52;97083.63;;;14.55;nan
24306;BME280;12423;48.768;8.850;2023-05-29T06:36:53;97090.50;;;14.58;nan
24306;BME280;12423;48.768;8.850;2023-05-29T06:38:54;97100.06;;;14.70;nan
24306;BME280;12423;48.768;8.850;2023-05-29T06:40:55;97092.53;;;14.74;nan
24306;BME280;12423;48.768;8.850;2023-05-29T06:42:56;97091.91;;;14.80;nan
24306;BME280;12423;48.768;8.850;2023-05-29T06:45:12;97104.44;;;14.98;nan
24306;BME280;12423;48.768;8.850;2023-05-29T06:47:14;97103.50;;;15.07;nan
24306;BME280;12423;48.768;8.850;2023-05-29T06:49:15;97103.41;;;15.17;nan
24306;BME280;12423;48.768;8.850;2023-05-29T06:51:17;97110.13;;;15.21;nan
24306;BME280;12423;48.768;8.850;2023-05-29T06:53:30;97104.63;;;15.30;nan
24306;BME280;12423;48.768;8.850;2023-05-29T06:55:31;97105.53;;;15.39;nan
24306;BME280;12423;48.768;8.850;2023-05-29T06:57:32;97112.59;;;15.40;nan
24306;BME280;12423;48.768;8.850;2023-05-29T06:59:33;97114.84;;;15.53;nan
24306;BME280;12423;48.768;8.850;2023-05-29T07:01:34;97110.16;;;15.63;nan
24306;BME280;12423;48.768;8.850;2023-05-29T07:03:38;97130.22;;;15.69;nan
24306;BME280;12423;48.768;8.850;2023-05-29T07:05:39;97117.97;;;15.75;nan
24306;BME280;12423;48.768;8.850;2023-05-29T07:07:40;97120.66;;;15.75;nan
24306;BME280;12423;48.768;8.850;2023-05-29T07:09:44;97126.09;;;15.83;nan
24306;BME280;12423;48.768;8.850;2023-05-29T07:11:46;97126.97;;;15.92;nan
24306;BME280;12423;48.768;8.850;2023-05-29T07:13:48;97134.56;;;15.96;nan
24306;BME280;12423;48.768;8.850;2023-05-29T07:15:50;97127.16;;;15.98;nan
24306;BME280;12423;48.768;8.850;2023-05-29T07:17:55;97131.06;;;16.12;nan
24306;BME280;12423;48.768;8.850;2023-05-29T07:20:00;97127.19;;;16.23;nan
24306;BME280;12423;48.768;8.850;2023-05-29T07:22:01;97121.34;;;16.36;nan
24306;BME280;12423;48.768;8.850;2023-05-29T07:24:02;97116.63;;;16.46;nan
24306;BME280;12423;48.768;8.850;2023-05-29T07:26:03;97119.66;;;16.51;nan
24306;BME280;12423;48.768;8.850;2023-05-29T07:28:05;97120.84;;;16.49;nan
24306;BME280;12423;48.768;8.850;2023-05-29T07:30:07;97128.78;;;16.83;nan
24306;BME280;12423;48.768;8.850;2023-05-29T07:32:09;97133.34;;;16.91;nan
24306;BME280;12423;48.768;8.850;2023-05-29T07:34:12;97125.41;;;17.06;nan
24306;BME280;12423;48.768;8.850;2023-05-29T07:36:15;97119.97;;;17.14;nan
24306;BME280;12423;48.768;8.850;2023-05-29T07:38:17;97118.63;;;17.26;nan
24306;BME280;12423;48.768;8.850;2023-05-29T07:40:18;97128.03;;;17.30;nan
24306;BME280;12423;48.768;8.850;2023-05-29T07:42:34;97127.19;;;17.38;nan
24306;BME280;12423;48.768;8.850;2023-05-29T07:44:36;97133.56;;;17.45;nan
24306;BME280;12423;48.768;8.850;2023-05-29T07:46:37;97128.84;;;17.56;nan
24306;BME280;12423;48.768;8.850;2023-05-29T07:48:58;97126.47;;;17.61;nan
24306;BME280;12423;48.768;8.850;2023-05-29T07:50:59;97131.34;;;17.65;nan
24306;BME280;12423;48.768;8.850;2023-05-29T07:53:03;97131.69;;;17.62;nan
24306;BME280;12423;48.768;8.850;2023-05-29T07:55:07;97133.94;;;17.42;nan
24306;BME280;12423;48.768;8.850;2023-05-29T07:57:08;97131.00;;;17.60;nan
24306;BME280;12423;48.768;8.850;2023-05-29T07:59:14;97125.06;;;17.65;nan
24306;BME280;12423;48.768;8.850;2023-05-29T08:01:16;97124.06;;;17.66;nan
24306;BME280;12423;48.768;8.850;2023-05-29T08:03:17;97130.78;;;17.70;nan
24306;BME280;12423;48.768;8.850;2023-05-29T08:05:38;97121.13;;;17.84;nan
24306;BME280;12423;48.768;8.850;2023-05-29T08:07:44;97128.56;;;17.82;nan
24306;BME280;12423;48.768;8.850;2023-05-29T08:09:45;97121.94;;;17.93;nan
24306;BME280;12423;48.768;8.850;2023-05-29T08:11:46;97120.03;;;18.01;nan
24306;BME280;12423;48.768;8.850;2023-05-29T08:13:48;97125.81;;;18.30;nan
24306;BME280;12423;48.768;8.850;2023-05-29T08:15:49;97129.78;;;18.42;nan
24306;BME280;12423;48.768;8.850;2023-05-29T08:17:50;97118.53;;;18.53;nan
24306;BME280;12423;48.768;8.850;2023-05-29T08:19:51;97123.34;;;18.66;nan
24306;BME280;12423;48.768;8.850;2023-05-29T08:21:52;97126.59;;;18.85;nan
24306;BME280;12423;48.768;8.850;2023-05-29T08:23:53;97123.47;;;18.96;nan
24306;BME280;12423;48.768;8.850;2023-05-29T08:25:54;97119.53;;;18.99;nan
24306;BME280;12423;48.768;8.850;2023-05-29T08:27:55;97117.41;;;19.09;nan
24306;BME280;12423;48.768;8.850;2023-05-29T08:29:56;97119.59;;;19.28;nan
24306;BME280;12423;48.768;8.850;2023-05-29T08:31:57;97125.59;;;19.39;nan
24306;BME280;12423;48.768;8.850;2023-05-29T08:33:58;97126.06;;;19.42;nan
24306;BME280;12423;48.768;8.850;2023-05-29T08:35:59;97125.59;;;19.42;nan
24306;BME280;12423;48.768;8.850;2023-05-29T08:38:01;97124.19;;;19.43;nan
24306;BME280;12423;48.768;8.850;2023-05-29T08:40:02;97121.84;;;19.40;nan
24306;BME280;12423;48.768;8.850;2023-05-29T08:42:12;97134.28;;;19.64;nan
24306;BME280;12423;48.768;8.850;2023-05-29T08:44:14;97126.88;;;19.73;nan
24306;BME280;12423;48.768;8.850;2023-05-29T08:46:18;97125.97;;;19.95;nan
24306;BME280;12423;48.768;8.850;2023-05-29T08:48:22;97120.50;;;20.10;nan
24306;BME280;12423;48.768;8.850;2023-05-29T08:50:24;97125.25;;;20.23;nan
24306;BME280;12423;48.768;8.850;2023-05-29T08:52:25;97127.47;;;20.34;nan
24306;BME280;12423;48.768;8.850;2023-05-29T08:54:26;97123.19;;;20.47;nan
24306;BME280;12423;48.768;8.850;2023-05-29T08:56:27;97119.66;;;20.46;nan
24306;BME280;12423;48.768;8.850;2023-05-29T08:58:28;97118.91;;;20.74;nan
24306;BME280;12423;48.768;8.850;2023-05-29T09:00:29;97135.19;;;20.74;nan
24306;BME280;12423;48.768;8.850;2023-05-29T09:02:30;97113.41;;;20.67;nan
24306;BME280;12423;48.768;8.850;2023-05-29T09:04:31;97122.06;;;20.99;nan
24306;BME280;12423;48.768;8.850;2023-05-29T09:06:33;97121.69;;;20.80;nan
24306;BME280;12423;48.768;8.850;2023-05-29T09:08:35;97116.03;;;20.60;nan
24306;BME280;12423;48.768;8.850;2023-05-29T09:10:36;97124.41;;;20.80;nan
24306;BME280;12423;48.768;8.850;2023-05-29T09:12:37;97134.69;;;21.13;nan
24306;BME280;12423;48.768;8.850;2023-05-29T09:14:39;97129.03;;;21.37;nan
24306;BME280;12423;48.768;8.850;2023-05-29T09:16:41;97129.22;;;21.35;nan
24306;BME280;12423;48.768;8.850;2023-05-29T09:18:44;97133.53;;;21.51;nan
24306;BME280;12423;48.768;8.850;2023-05-29T09:20:47;97131.75;;;21.65;nan
24306;BME280;12423;48.768;8.850;2023-05-29T09:22:59;97128.50;;;21.83;nan
24306;BME280;12423;48.768;8.850;2023-05-29T09:25:01;97140.94;;;22.05;nan
24306;BME280;12423;48.768;8.850;2023-05-29T09:27:03;97136.16;;;22.14;nan
24306;BME280;12423;48.768;8.850;2023-05-29T09:29:08;97140.22;;;21.83;nan
24306;BME280;12423;48.768;8.850;2023-05-29T09:31:14;97142.97;;;21.55;nan
24306;BME280;12423;48.768;8.850;2023-05-29T09:33:16;97145.41;;;21.78;nan
24306;BME280;12423;48.768;8.850;2023-05-29T09:35:19;97145.69;;;21.90;nan
24306;BME280;12423;48.768;8.850;2023-05-29T09:37:20;97146.72;;;21.96;nan
24306;BME280;12423;48.768;8.850;2023-05-29T09:39:23;97147.84;;;22.08;nan
24306;BME280;12423;48.768;8.850;2023-05-29T09:41:24;97147.22;;;21.71;nan
24306;BME280;12423;48.768;8.850;2023-05-29T09:45:25;97154.28;;;22.42;nan
24306;BME280;12423;48.768;8.850;2023-05-29T09:47:32;97150.78;;;22.61;nan
24306;BME280;12423;48.768;8.850;2023-05-29T09:49:33;97153.50;;;22.61;nan
24306;BME280;12423;48.768;8.850;2023-05-29T09:51:35;97157.53;;;22.86;nan
24306;BME280;12423;48.768;8.850;2023-05-29T09:53:39;97145.41;;;23.02;nan
24306;BME280;12423;48.768;8.850;2023-05-29T09:55:43;97155.78;;;22.58;nan
24306;BME280;12423;48.768;8.850;2023-05-29T09:57:46;97154.28;;;22.42;nan
24306;BME280;12423;48.768;8.850;2023-05-29T09:59:49;97150.31;;;22.44;nan
24306;BME280;12423;48.768;8.850;2023-05-29T10:02:03;97150.69;;;22.35;nan
24306;BME280;12423;48.768;8.850;2023-05-29T10:04:04;97143.72;;;22.94;nan
24306;BME280;12423;48.768;8.850;2023-05-29T10:06:06;97144.81;;;23.33;nan
24306;BME280;12423;48.768;8.850;2023-05-29T10:08:14;97133.88;;;23.26;nan
24306;BME280;12423;48.768;8.850;2023-05-29T10:10:16;97143.13;;;23.12;nan
24306;BME280;12423;48.768;8.850;2023-05-29T10:12:20;97142.66;;;23.55;nan
24306;BME280;12423;48.768;8.850;2023-05-29T10:14:22;97146.59;;;23.79;nan
24306;BME280;12423;48.768;8.850;2023-05-29T10:16:24;97138.88;;;23.69;nan
24306;BME280;12423;48.768;8.850;2023-05-29T10:18:27;97140.94;;;23.94;nan
24306;BME280;12423;48.768;8.850;2023-05-29T10:20:33;97140.94;;;23.87;nan
24306;BME280;12423;48.768;8.850;2023-05-29T10:22:40;97143.69;;;23.87;nan
24306;BME280;12423;48.768;8.850;2023-05-29T10:24:45;97141.97;;;24.38;nan
24306;BME280;12423;48.768;8.850;2023-05-29T10:26:49;97137.97;;;24.38;nan
24306;BME280;12423;48.768;8.850;2023-05-29T10:28:57;97141.38;;;23.71;nan
24306;BME280;12423;48.768;8.850;2023-05-29T10:31:08;97140.72;;;24.41;nan
24306;BME280;12423;48.768;8.850;2023-05-29T10:35:40;97137.03;;;24.67;nan
24306;BME280;12423;48.768;8.850;2023-05-29T10:37:52;97130.41;;;25.13;nan
24306;BME280;12423;48.768;8.850;2023-05-29T10:40:07;97115.75;;;25.33;nan
24306;BME280;12423;48.768;8.850;2023-05-29T10:42:44;97129.78;;;25.62;nan
24306;BME280;12423;48.768;8.850;2023-05-29T10:44:45;97118.09;;;25.73;nan
24306;BME280;12423;48.768;8.850;2023-05-29T10:48:50;97123.59;;;25.48;nan
24306;BME280;12423;48.768;8.850;2023-05-29T10:50:51;97127.69;;;26.01;nan
24306;BME280;12423;48.768;8.850;2023-05-29T10:52:52;97132.22;;;25.70;nan
24306;BME280;12423;48.768;8.850;2023-05-29T10:54:54;97124.88;;;24.95;nan
24306;BME280;12423;48.768;8.850;2023-05-29T10:56:57;97125.63;;;24.77;nan
24306;BME280;12423;48.768;8.850;2023-05-29T10:58:59;97126.69;;;24.76;nan
24306;BME280;12423;48.768;8.850;2023-05-29T11:01:03;97127.50;;;24.76;nan
24306;BME280;12423;48.768;8.850;2023-05-29T11:03:07;97122.09;;;25.01;nan
24306;BME280;12423;48.768;8.850;2023-05-29T11:05:18;97129.28;;;26.08;nan
24306;BME280;12423;48.768;8.850;2023-05-29T11:07:33;97126.16;;;26.23;nan
24306;BME280;12423;48.768;8.850;2023-05-29T11:09:37;97117.56;;;25.83;nan
24306;BME280;12423;48.768;8.850;2023-05-29T11:11:38;97126.25;;;25.04;nan
24306;BME280;12423;48.768;8.850;2023-05-29T11:13:52;97125.22;;;25.05;nan
24306;BME280;12423;48.768;8.850;2023-05-29T11:18:25;97121.59;;;26.17;nan
24306;BME280;12423;48.768;8.850;2023-05-29T11:24:50;97102.75;;;27.12;nan
24306;BME280;12423;48.768;8.850;2023-05-29T11:26:53;97114.06;;;27.03;nan